sensor_id;sensor_type;location;lat;lon;timestamp;P1;durP1;ratioP1;P2;durP2;ratioP2
23338;SDS011;11841;49.368;20.962;2022-08-19T00:01:49;14.20;;;8.88;;
23338;SDS011;11841;49.368;20.962;2022-08-19T00:04:23;11.50;;;8.90;;
23338;SDS011;11841;49.368;20.962;2022-08-19T00:06:52;13.77;;;8.20;;
23338;SDS011;11841;49.368;20.962;2022-08-19T00:09:19;10.73;;;8.48;;
23338;SDS011;11841;49.368;20.962;2022-08-19T00:11:48;18.05;;;8.82;;
23338;SDS011;11841;49.368;20.962;2022-08-19T00:14:16;10.93;;;7.82;;
23338;SDS011;11841;49.368;20.962;2022-08-19T00:16:44;14.50;;;8.40;;
23338;SDS011;11841;49.368;20.962;2022-08-19T00:19:13;14.68;;;8.63;;
23338;SDS011;11841;49.368;20.962;2022-08-19T00:21:40;11.77;;;7.70;;
23338;SDS011;11841;49.368;20.962;2022-08-19T00:24:08;17.83;;;8.32;;
23338;SDS011;11841;49.368;20.962;2022-08-19T00:26:36;12.07;;;8.75;;
23338;SDS011;11841;49.368;20.962;2022-08-19T00:29:04;12.98;;;8.75;;
23338;SDS011;11841;49.368;20.962;2022-08-19T00:31:31;11.35;;;7.47;;
23338;SDS011;11841;49.368;20.962;2022-08-19T00:33:58;15.82;;;8.75;;
23338;SDS011;11841;49.368;20.962;2022-08-19T00:36:25;13.30;;;8.05;;
23338;SDS011;11841;49.368;20.962;2022-08-19T00:38:51;14.40;;;7.68;;
23338;SDS011;11841;49.368;20.962;2022-08-19T00:41:19;10.68;;;8.32;;
23338;SDS011;11841;49.368;20.962;2022-08-19T00:43:57;12.90;;;8.20;;
23338;SDS011;11841;49.368;20.962;2022-08-19T00:46:29;14.40;;;8.57;;
23338;SDS011;11841;49.368;20.962;2022-08-19T00:48:56;12.25;;;8.65;;
23338;SDS011;11841;49.368;20.962;2022-08-19T00:51:27;12.05;;;8.73;;
23338;SDS011;11841;49.368;20.962;2022-08-19T00:53:56;13.27;;;9.25;;
23338;SDS011;11841;49.368;20.962;2022-08-19T00:56:24;12.50;;;8.73;;
23338;SDS011;11841;49.368;20.962;2022-08-19T00:58:54;11.93;;;8.15;;
23338;SDS011;11841;49.368;20.962;2022-08-19T01:01:22;15.82;;;8.48;;
23338;SDS011;11841;49.368;20.962;2022-08-19T01:03:49;14.20;;;7.82;;
23338;SDS011;11841;49.368;20.962;2022-08-19T01:06:23;9.93;;;8.13;;
23338;SDS011;11841;49.368;20.962;2022-08-19T01:08:50;12.95;;;8.52;;
23338;SDS011;11841;49.368;20.962;2022-08-19T01:11:17;10.85;;;8.18;;
23338;SDS011;11841;49.368;20.962;2022-08-19T01:13:43;12.85;;;7.32;;
23338;SDS011;11841;49.368;20.962;2022-08-19T01:16:15;16.80;;;8.32;;
23338;SDS011;11841;49.368;20.962;2022-08-19T01:18:44;13.10;;;8.00;;
23338;SDS011;11841;49.368;20.962;2022-08-19T01:21:18;9.88;;;7.10;;
23338;SDS011;11841;49.368;20.962;2022-08-19T01:24:04;12.55;;;8.00;;
23338;SDS011;11841;49.368;20.962;2022-08-19T01:26:30;18.27;;;8.65;;
23338;SDS011;11841;49.368;20.962;2022-08-19T01:28:58;9.98;;;8.10;;
23338;SDS011;11841;49.368;20.962;2022-08-19T01:31:30;12.65;;;8.15;;
23338;SDS011;11841;49.368;20.962;2022-08-19T01:33:58;13.68;;;7.85;;
23338;SDS011;11841;49.368;20.962;2022-08-19T01:39:15;10.88;;;7.50;;
23338;SDS011;11841;49.368;20.962;2022-08-19T01:41:46;10.30;;;8.35;;
23338;SDS011;11841;49.368;20.962;2022-08-19T01:44:13;12.38;;;7.72;;
23338;SDS011;11841;49.368;20.962;2022-08-19T01:46:44;13.70;;;8.25;;
23338;SDS011;11841;49.368;20.962;2022-08-19T01:49:14;12.15;;;7.85;;
23338;SDS011;11841;49.368;20.962;2022-08-19T01:51:41;12.70;;;8.90;;
23338;SDS011;11841;49.368;20.962;2022-08-19T01:54:08;12.00;;;8.23;;
23338;SDS011;11841;49.368;20.962;2022-08-19T01:56:36;14.15;;;7.25;;
23338;SDS011;11841;49.368;20.962;2022-08-19T01:59:03;13.10;;;8.25;;
23338;SDS011;11841;49.368;20.962;2022-08-19T02:01:34;11.05;;;8.10;;
23338;SDS011;11841;49.368;20.962;2022-08-19T02:04:01;10.52;;;7.75;;
23338;SDS011;11841;49.368;20.962;2022-08-19T02:06:28;12.80;;;7.35;;
23338;SDS011;11841;49.368;20.962;2022-08-19T02:08:55;11.75;;;8.48;;
23338;SDS011;11841;49.368;20.962;2022-08-19T02:11:27;10.43;;;7.68;;
23338;SDS011;11841;49.368;20.962;2022-08-19T02:13:58;10.35;;;7.88;;
23338;SDS011;11841;49.368;20.962;2022-08-19T02:16:25;13.63;;;9.13;;
23338;SDS011;11841;49.368;20.962;2022-08-19T02:18:52;13.82;;;8.18;;
23338;SDS011;11841;49.368;20.962;2022-08-19T02:21:19;12.13;;;8.02;;
23338;SDS011;11841;49.368;20.962;2022-08-19T02:23:48;14.20;;;8.10;;
23338;SDS011;11841;49.368;20.962;2022-08-19T02:26:15;13.52;;;8.15;;
23338;SDS011;11841;49.368;20.962;2022-08-19T02:28:43;13.00;;;7.88;;
23338;SDS011;11841;49.368;20.962;2022-08-19T02:31:10;11.82;;;8.20;;
23338;SDS011;11841;49.368;20.962;2022-08-19T02:36:05;12.48;;;7.60;;
23338;SDS011;11841;49.368;20.962;2022-08-19T02:38:33;11.50;;;7.50;;
23338;SDS011;11841;49.368;20.962;2022-08-19T02:41:02;10.73;;;7.32;;
23338;SDS011;11841;49.368;20.962;2022-08-19T02:43:31;9.68;;;7.20;;
23338;SDS011;11841;49.368;20.962;2022-08-19T02:45:59;10.98;;;7.43;;
23338;SDS011;11841;49.368;20.962;2022-08-19T02:48:26;11.88;;;7.72;;
23338;SDS011;11841;49.368;20.962;2022-08-19T02:50:53;15.30;;;7.70;;
23338;SDS011;11841;49.368;20.962;2022-08-19T02:55:51;17.23;;;8.38;;
23338;SDS011;11841;49.368;20.962;2022-08-19T02:58:18;15.18;;;8.07;;
23338;SDS011;11841;49.368;20.962;2022-08-19T03:00:45;13.02;;;7.85;;
23338;SDS011;11841;49.368;20.962;2022-08-19T03:03:15;11.35;;;8.00;;
23338;SDS011;11841;49.368;20.962;2022-08-19T03:05:43;9.35;;;7.18;;
23338;SDS011;11841;49.368;20.962;2022-08-19T03:08:22;15.25;;;8.02;;
23338;SDS011;11841;49.368;20.962;2022-08-19T03:10:48;10.27;;;7.80;;
23338;SDS011;11841;49.368;20.962;2022-08-19T03:13:16;12.65;;;7.50;;
23338;SDS011;11841;49.368;20.962;2022-08-19T03:15:44;11.23;;;8.32;;
23338;SDS011;11841;49.368;20.962;2022-08-19T03:18:12;11.40;;;8.05;;
23338;SDS011;11841;49.368;20.962;2022-08-19T03:20:47;11.70;;;7.90;;
23338;SDS011;11841;49.368;20.962;2022-08-19T03:23:15;15.77;;;8.50;;
23338;SDS011;11841;49.368;20.962;2022-08-19T03:25:44;14.68;;;8.82;;
23338;SDS011;11841;49.368;20.962;2022-08-19T03:28:34;13.48;;;7.57;;
23338;SDS011;11841;49.368;20.962;2022-08-19T03:31:03;13.82;;;7.88;;
23338;SDS011;11841;49.368;20.962;2022-08-19T03:33:52;12.73;;;7.53;;
23338;SDS011;11841;49.368;20.962;2022-08-19T03:36:22;10.70;;;8.05;;
23338;SDS011;11841;49.368;20.962;2022-08-19T03:38:57;13.48;;;8.43;;
23338;SDS011;11841;49.368;20.962;2022-08-19T03:41:27;15.27;;;9.88;;
23338;SDS011;11841;49.368;20.962;2022-08-19T03:44:11;10.95;;;7.85;;
23338;SDS011;11841;49.368;20.962;2022-08-19T03:46:50;9.23;;;7.07;;
23338;SDS011;11841;49.368;20.962;2022-08-19T03:49:20;11.48;;;7.40;;
23338;SDS011;11841;49.368;20.962;2022-08-19T03:51:54;13.18;;;7.95;;
23338;SDS011;11841;49.368;20.962;2022-08-19T03:54:24;9.00;;;7.57;;
23338;SDS011;11841;49.368;20.962;2022-08-19T03:56:52;12.10;;;7.32;;
23338;SDS011;11841;49.368;20.962;2022-08-19T04:01:52;12.35;;;7.75;;
23338;SDS011;11841;49.368;20.962;2022-08-19T04:04:20;15.07;;;7.65;;
23338;SDS011;11841;49.368;20.962;2022-08-19T04:06:47;12.07;;;7.13;;
23338;SDS011;11841;49.368;20.962;2022-08-19T04:09:14;10.20;;;7.10;;
23338;SDS011;11841;49.368;20.962;2022-08-19T04:11:43;16.58;;;9.13;;
23338;SDS011;11841;49.368;20.962;2022-08-19T04:14:15;11.77;;;7.32;;
23338;SDS011;11841;49.368;20.962;2022-08-19T04:16:46;11.18;;;7.93;;
23338;SDS011;11841;49.368;20.962;2022-08-19T04:19:13;10.43;;;7.72;;
23338;SDS011;11841;49.368;20.962;2022-08-19T04:21:42;11.73;;;7.45;;
23338;SDS011;11841;49.368;20.962;2022-08-19T04:24:10;16.00;;;8.70;;
23338;SDS011;11841;49.368;20.962;2022-08-19T04:26:38;12.40;;;8.95;;
23338;SDS011;11841;49.368;20.962;2022-08-19T04:29:06;16.23;;;7.72;;
23338;SDS011;11841;49.368;20.962;2022-08-19T04:31:40;11.20;;;8.18;;
23338;SDS011;11841;49.368;20.962;2022-08-19T04:34:08;16.05;;;8.30;;
23338;SDS011;11841;49.368;20.962;2022-08-19T04:39:07;11.48;;;7.68;;
23338;SDS011;11841;49.368;20.962;2022-08-19T04:41:36;15.45;;;8.77;;
23338;SDS011;11841;49.368;20.962;2022-08-19T04:44:22;10.75;;;8.27;;
23338;SDS011;11841;49.368;20.962;2022-08-19T04:46:49;11.95;;;8.63;;
23338;SDS011;11841;49.368;20.962;2022-08-19T04:49:18;12.93;;;8.13;;
23338;SDS011;11841;49.368;20.962;2022-08-19T04:51:48;13.15;;;8.95;;
23338;SDS011;11841;49.368;20.962;2022-08-19T04:54:17;20.10;;;8.73;;
23338;SDS011;11841;49.368;20.962;2022-08-19T04:57:04;11.15;;;8.52;;
23338;SDS011;11841;49.368;20.962;2022-08-19T04:59:37;11.90;;;9.20;;
23338;SDS011;11841;49.368;20.962;2022-08-19T05:02:06;17.90;;;9.27;;
23338;SDS011;11841;49.368;20.962;2022-08-19T05:04:33;14.00;;;9.20;;
23338;SDS011;11841;49.368;20.962;2022-08-19T05:07:01;12.40;;;8.77;;
23338;SDS011;11841;49.368;20.962;2022-08-19T05:09:28;14.70;;;9.13;;
23338;SDS011;11841;49.368;20.962;2022-08-19T05:12:16;20.83;;;9.93;;
23338;SDS011;11841;49.368;20.962;2022-08-19T05:14:43;17.70;;;9.40;;
23338;SDS011;11841;49.368;20.962;2022-08-19T05:17:11;15.13;;;9.30;;
23338;SDS011;11841;49.368;20.962;2022-08-19T05:19:53;14.55;;;9.38;;
23338;SDS011;11841;49.368;20.962;2022-08-19T05:22:39;17.63;;;8.93;;
23338;SDS011;11841;49.368;20.962;2022-08-19T05:25:08;13.00;;;9.57;;
23338;SDS011;11841;49.368;20.962;2022-08-19T05:27:39;21.40;;;11.00;;
23338;SDS011;11841;49.368;20.962;2022-08-19T05:30:07;15.43;;;9.95;;
23338;SDS011;11841;49.368;20.962;2022-08-19T05:32:36;12.20;;;8.63;;
23338;SDS011;11841;49.368;20.962;2022-08-19T05:35:03;16.27;;;10.32;;
23338;SDS011;11841;49.368;20.962;2022-08-19T05:37:30;14.65;;;10.07;;
23338;SDS011;11841;49.368;20.962;2022-08-19T05:39:57;14.55;;;10.38;;
23338;SDS011;11841;49.368;20.962;2022-08-19T05:42:24;13.82;;;10.75;;
23338;SDS011;11841;49.368;20.962;2022-08-19T05:44:52;15.50;;;10.93;;
23338;SDS011;11841;49.368;20.962;2022-08-19T05:47:19;15.18;;;10.68;;
23338;SDS011;11841;49.368;20.962;2022-08-19T05:49:46;13.85;;;10.63;;
23338;SDS011;11841;49.368;20.962;2022-08-19T05:52:14;14.73;;;10.90;;
23338;SDS011;11841;49.368;20.962;2022-08-19T05:54:44;15.80;;;10.38;;
23338;SDS011;11841;49.368;20.962;2022-08-19T05:57:17;18.60;;;11.30;;
23338;SDS011;11841;49.368;20.962;2022-08-19T05:59:44;16.02;;;11.38;;
23338;SDS011;11841;49.368;20.962;2022-08-19T06:02:23;18.25;;;11.73;;
23338;SDS011;11841;49.368;20.962;2022-08-19T06:04:51;14.00;;;10.05;;
23338;SDS011;11841;49.368;20.962;2022-08-19T06:07:17;14.57;;;11.15;;
23338;SDS011;11841;49.368;20.962;2022-08-19T06:09:45;14.73;;;10.50;;
23338;SDS011;11841;49.368;20.962;2022-08-19T06:12:26;15.85;;;11.38;;
23338;SDS011;11841;49.368;20.962;2022-08-19T06:14:57;21.63;;;11.90;;
23338;SDS011;11841;49.368;20.962;2022-08-19T06:17:26;16.33;;;11.82;;
23338;SDS011;11841;49.368;20.962;2022-08-19T06:19:55;16.55;;;11.25;;
23338;SDS011;11841;49.368;20.962;2022-08-19T06:22:22;17.73;;;11.65;;
23338;SDS011;11841;49.368;20.962;2022-08-19T06:24:49;17.25;;;11.82;;
23338;SDS011;11841;49.368;20.962;2022-08-19T06:27:19;16.75;;;11.02;;
23338;SDS011;11841;49.368;20.962;2022-08-19T06:29:46;16.00;;;11.30;;
23338;SDS011;11841;49.368;20.962;2022-08-19T06:32:14;16.40;;;11.32;;
23338;SDS011;11841;49.368;20.962;2022-08-19T06:34:42;19.00;;;11.43;;
23338;SDS011;11841;49.368;20.962;2022-08-19T06:37:09;15.15;;;11.43;;
23338;SDS011;11841;49.368;20.962;2022-08-19T06:39:38;22.03;;;10.27;;
23338;SDS011;11841;49.368;20.962;2022-08-19T06:42:06;22.85;;;11.93;;
23338;SDS011;11841;49.368;20.962;2022-08-19T06:44:36;26.92;;;11.98;;
23338;SDS011;11841;49.368;20.962;2022-08-19T06:47:09;16.65;;;10.82;;
23338;SDS011;11841;49.368;20.962;2022-08-19T06:49:48;18.70;;;11.15;;
23338;SDS011;11841;49.368;20.962;2022-08-19T06:52:15;14.20;;;10.25;;
23338;SDS011;11841;49.368;20.962;2022-08-19T06:54:42;19.50;;;10.32;;
23338;SDS011;11841;49.368;20.962;2022-08-19T06:57:22;16.25;;;10.70;;
23338;SDS011;11841;49.368;20.962;2022-08-19T06:59:50;14.70;;;9.80;;
23338;SDS011;11841;49.368;20.962;2022-08-19T07:02:17;13.98;;;10.32;;
23338;SDS011;11841;49.368;20.962;2022-08-19T07:04:44;17.40;;;11.02;;
23338;SDS011;11841;49.368;20.962;2022-08-19T07:07:12;15.50;;;11.48;;
23338;SDS011;11841;49.368;20.962;2022-08-19T07:09:46;13.63;;;10.32;;
23338;SDS011;11841;49.368;20.962;2022-08-19T07:12:26;16.88;;;10.68;;
23338;SDS011;11841;49.368;20.962;2022-08-19T07:14:56;13.68;;;9.57;;
23338;SDS011;11841;49.368;20.962;2022-08-19T07:17:24;14.00;;;10.27;;
23338;SDS011;11841;49.368;20.962;2022-08-19T07:19:51;13.32;;;9.13;;
23338;SDS011;11841;49.368;20.962;2022-08-19T07:22:19;12.32;;;10.40;;
23338;SDS011;11841;49.368;20.962;2022-08-19T07:24:50;13.95;;;9.70;;
23338;SDS011;11841;49.368;20.962;2022-08-19T07:27:17;13.90;;;8.93;;
23338;SDS011;11841;49.368;20.962;2022-08-19T07:29:50;16.52;;;10.52;;
23338;SDS011;11841;49.368;20.962;2022-08-19T07:32:22;15.10;;;9.48;;
23338;SDS011;11841;49.368;20.962;2022-08-19T07:34:52;12.45;;;9.25;;
23338;SDS011;11841;49.368;20.962;2022-08-19T07:37:18;19.65;;;10.20;;
23338;SDS011;11841;49.368;20.962;2022-08-19T07:39:45;17.17;;;9.60;;
23338;SDS011;11841;49.368;20.962;2022-08-19T07:42:12;16.40;;;9.38;;
23338;SDS011;11841;49.368;20.962;2022-08-19T07:44:40;12.93;;;8.57;;
23338;SDS011;11841;49.368;20.962;2022-08-19T07:47:07;16.25;;;9.88;;
23338;SDS011;11841;49.368;20.962;2022-08-19T07:49:54;10.48;;;7.95;;
23338;SDS011;11841;49.368;20.962;2022-08-19T07:52:20;13.13;;;8.40;;
23338;SDS011;11841;49.368;20.962;2022-08-19T08:05:49;12.10;;;8.52;;
23338;SDS011;11841;49.368;20.962;2022-08-19T08:08:34;9.70;;;7.60;;
23338;SDS011;11841;49.368;20.962;2022-08-19T08:11:19;10.93;;;7.70;;
23338;SDS011;11841;49.368;20.962;2022-08-19T08:13:49;11.73;;;7.32;;
23338;SDS011;11841;49.368;20.962;2022-08-19T08:16:29;11.25;;;7.13;;
23338;SDS011;11841;49.368;20.962;2022-08-19T08:18:57;13.73;;;7.45;;
23338;SDS011;11841;49.368;20.962;2022-08-19T08:21:24;11.57;;;6.68;;
23338;SDS011;11841;49.368;20.962;2022-08-19T08:23:51;9.15;;;7.13;;
23338;SDS011;11841;49.368;20.962;2022-08-19T08:26:22;10.18;;;7.10;;
23338;SDS011;11841;49.368;20.962;2022-08-19T08:28:49;9.98;;;7.28;;
23338;SDS011;11841;49.368;20.962;2022-08-19T08:31:16;11.50;;;7.35;;
23338;SDS011;11841;49.368;20.962;2022-08-19T08:33:45;10.95;;;7.32;;
23338;SDS011;11841;49.368;20.962;2022-08-19T08:36:13;9.50;;;7.30;;
23338;SDS011;11841;49.368;20.962;2022-08-19T08:38:40;13.15;;;6.32;;
23338;SDS011;11841;49.368;20.962;2022-08-19T08:43:47;9.55;;;7.13;;
23338;SDS011;11841;49.368;20.962;2022-08-19T08:46:29;14.52;;;8.18;;
23338;SDS011;11841;49.368;20.962;2022-08-19T08:49:06;13.40;;;7.03;;
23338;SDS011;11841;49.368;20.962;2022-08-19T08:51:52;12.80;;;7.90;;
23338;SDS011;11841;49.368;20.962;2022-08-19T08:54:30;9.27;;;6.53;;
23338;SDS011;11841;49.368;20.962;2022-08-19T08:57:07;11.93;;;7.15;;
23338;SDS011;11841;49.368;20.962;2022-08-19T08:59:41;14.45;;;7.57;;
23338;SDS011;11841;49.368;20.962;2022-08-19T09:02:12;9.18;;;7.22;;
23338;SDS011;11841;49.368;20.962;2022-08-19T09:04:39;11.00;;;7.05;;
23338;SDS011;11841;49.368;20.962;2022-08-19T09:10:25;13.85;;;7.60;;
23338;SDS011;11841;49.368;20.962;2022-08-19T09:15:44;9.93;;;7.57;;
23338;SDS011;11841;49.368;20.962;2022-08-19T09:18:14;11.15;;;7.43;;
23338;SDS011;11841;49.368;20.962;2022-08-19T09:20:45;10.50;;;7.32;;
23338;SDS011;11841;49.368;20.962;2022-08-19T09:23:15;12.85;;;7.55;;
23338;SDS011;11841;49.368;20.962;2022-08-19T09:25:42;11.35;;;7.47;;
23338;SDS011;11841;49.368;20.962;2022-08-19T09:28:08;11.48;;;7.65;;
23338;SDS011;11841;49.368;20.962;2022-08-19T09:30:48;10.68;;;7.45;;
23338;SDS011;11841;49.368;20.962;2022-08-19T09:33:14;12.57;;;7.82;;
23338;SDS011;11841;49.368;20.962;2022-08-19T09:35:41;10.90;;;7.20;;
23338;SDS011;11841;49.368;20.962;2022-08-19T09:38:18;13.77;;;8.40;;
23338;SDS011;11841;49.368;20.962;2022-08-19T09:40:45;16.52;;;7.32;;
23338;SDS011;11841;49.368;20.962;2022-08-19T09:43:11;10.43;;;7.30;;
23338;SDS011;11841;49.368;20.962;2022-08-19T09:45:39;13.82;;;8.25;;
23338;SDS011;11841;49.368;20.962;2022-08-19T09:48:06;9.97;;;6.73;;
23338;SDS011;11841;49.368;20.962;2022-08-19T09:50:36;14.73;;;8.50;;
23338;SDS011;11841;49.368;20.962;2022-08-19T09:53:17;13.93;;;8.15;;
23338;SDS011;11841;49.368;20.962;2022-08-19T09:55:45;14.75;;;8.57;;
23338;SDS011;11841;49.368;20.962;2022-08-19T09:58:11;10.40;;;7.80;;
23338;SDS011;11841;49.368;20.962;2022-08-19T10:00:38;15.25;;;8.77;;
23338;SDS011;11841;49.368;20.962;2022-08-19T10:03:05;11.00;;;7.53;;
23338;SDS011;11841;49.368;20.962;2022-08-19T10:05:33;11.52;;;7.43;;
23338;SDS011;11841;49.368;20.962;2022-08-19T10:08:25;12.20;;;8.63;;
23338;SDS011;11841;49.368;20.962;2022-08-19T10:10:54;12.93;;;8.07;;
23338;SDS011;11841;49.368;20.962;2022-08-19T10:13:25;7.97;;;7.10;;
23338;SDS011;11841;49.368;20.962;2022-08-19T10:15:54;11.93;;;7.40;;
23338;SDS011;11841;49.368;20.962;2022-08-19T10:18:23;15.85;;;7.28;;
23338;SDS011;11841;49.368;20.962;2022-08-19T10:20:51;10.90;;;7.70;;
23338;SDS011;11841;49.368;20.962;2022-08-19T10:23:20;14.80;;;7.72;;
23338;SDS011;11841;49.368;20.962;2022-08-19T10:25:48;11.07;;;7.65;;
23338;SDS011;11841;49.368;20.962;2022-08-19T10:28:16;11.38;;;8.25;;
23338;SDS011;11841;49.368;20.962;2022-08-19T10:33:11;10.18;;;8.23;;
23338;SDS011;11841;49.368;20.962;2022-08-19T10:35:38;14.40;;;8.20;;
23338;SDS011;11841;49.368;20.962;2022-08-19T10:38:08;11.27;;;7.72;;
23338;SDS011;11841;49.368;20.962;2022-08-19T10:40:35;10.07;;;8.02;;
23338;SDS011;11841;49.368;20.962;2022-08-19T10:43:01;12.85;;;8.38;;
23338;SDS011;11841;49.368;20.962;2022-08-19T10:45:28;15.43;;;8.80;;
23338;SDS011;11841;49.368;20.962;2022-08-19T10:47:55;10.00;;;7.65;;
23338;SDS011;11841;49.368;20.962;2022-08-19T10:50:21;13.60;;;8.85;;
23338;SDS011;11841;49.368;20.962;2022-08-19T10:53:07;13.82;;;8.88;;
23338;SDS011;11841;49.368;20.962;2022-08-19T10:55:35;16.97;;;7.77;;
23338;SDS011;11841;49.368;20.962;2022-08-19T10:58:20;14.75;;;8.50;;
23338;SDS011;11841;49.368;20.962;2022-08-19T11:00:52;21.05;;;9.10;;
23338;SDS011;11841;49.368;20.962;2022-08-19T11:03:21;10.43;;;7.68;;
23338;SDS011;11841;49.368;20.962;2022-08-19T11:06:01;10.50;;;8.32;;
23338;SDS011;11841;49.368;20.962;2022-08-19T11:08:29;17.55;;;9.00;;
23338;SDS011;11841;49.368;20.962;2022-08-19T11:10:59;15.40;;;8.43;;
23338;SDS011;11841;49.368;20.962;2022-08-19T11:13:27;10.18;;;8.45;;
23338;SDS011;11841;49.368;20.962;2022-08-19T11:15:58;15.02;;;8.52;;
23338;SDS011;11841;49.368;20.962;2022-08-19T11:18:36;9.75;;;7.90;;
23338;SDS011;11841;49.368;20.962;2022-08-19T11:21:15;15.20;;;8.52;;
23338;SDS011;11841;49.368;20.962;2022-08-19T11:23:48;16.83;;;8.32;;
23338;SDS011;11841;49.368;20.962;2022-08-19T11:26:18;11.65;;;8.55;;
23338;SDS011;11841;49.368;20.962;2022-08-19T11:28:47;13.93;;;8.63;;
23338;SDS011;11841;49.368;20.962;2022-08-19T11:31:16;10.25;;;7.93;;
23338;SDS011;11841;49.368;20.962;2022-08-19T11:33:44;13.52;;;9.07;;
23338;SDS011;11841;49.368;20.962;2022-08-19T11:36:13;13.23;;;8.15;;
23338;SDS011;11841;49.368;20.962;2022-08-19T11:38:40;12.80;;;8.33;;
23338;SDS011;11841;49.368;20.962;2022-08-19T11:41:07;12.95;;;7.30;;
23338;SDS011;11841;49.368;20.962;2022-08-19T11:43:35;10.77;;;7.20;;
23338;SDS011;11841;49.368;20.962;2022-08-19T11:46:06;13.57;;;8.20;;
23338;SDS011;11841;49.368;20.962;2022-08-19T11:48:34;16.70;;;8.40;;
23338;SDS011;11841;49.368;20.962;2022-08-19T11:51:03;12.70;;;8.38;;
23338;SDS011;11841;49.368;20.962;2022-08-19T11:53:35;11.98;;;7.72;;
23338;SDS011;11841;49.368;20.962;2022-08-19T11:56:03;12.97;;;8.07;;
23338;SDS011;11841;49.368;20.962;2022-08-19T11:58:32;15.38;;;7.57;;
23338;SDS011;11841;49.368;20.962;2022-08-19T12:00:58;11.15;;;8.30;;
23338;SDS011;11841;49.368;20.962;2022-08-19T12:03:25;10.57;;;7.68;;
23338;SDS011;11841;49.368;20.962;2022-08-19T12:05:52;9.27;;;8.02;;
23338;SDS011;11841;49.368;20.962;2022-08-19T12:08:19;12.00;;;8.25;;
23338;SDS011;11841;49.368;20.962;2022-08-19T12:10:46;11.90;;;7.43;;
23338;SDS011;11841;49.368;20.962;2022-08-19T12:13:12;8.95;;;7.20;;
23338;SDS011;11841;49.368;20.962;2022-08-19T12:15:45;17.92;;;8.85;;
23338;SDS011;11841;49.368;20.962;2022-08-19T12:18:13;15.70;;;8.48;;
23338;SDS011;11841;49.368;20.962;2022-08-19T12:20:40;8.82;;;7.32;;
23338;SDS011;11841;49.368;20.962;2022-08-19T12:23:08;11.63;;;7.28;;
23338;SDS011;11841;49.368;20.962;2022-08-19T12:25:43;13.52;;;8.30;;
23338;SDS011;11841;49.368;20.962;2022-08-19T12:28:16;13.95;;;7.38;;
23338;SDS011;11841;49.368;20.962;2022-08-19T12:30:44;11.25;;;6.78;;
23338;SDS011;11841;49.368;20.962;2022-08-19T12:33:11;11.07;;;7.60;;
23338;SDS011;11841;49.368;20.962;2022-08-19T12:35:40;9.48;;;6.53;;
23338;SDS011;11841;49.368;20.962;2022-08-19T12:38:10;10.55;;;6.88;;
23338;SDS011;11841;49.368;20.962;2022-08-19T12:40:37;10.98;;;7.63;;
23338;SDS011;11841;49.368;20.962;2022-08-19T12:43:06;13.38;;;7.28;;
23338;SDS011;11841;49.368;20.962;2022-08-19T12:45:34;12.05;;;7.05;;
23338;SDS011;11841;49.368;20.962;2022-08-19T12:48:02;11.70;;;7.20;;
23338;SDS011;11841;49.368;20.962;2022-08-19T12:50:50;11.00;;;6.35;;
23338;SDS011;11841;49.368;20.962;2022-08-19T12:53:17;15.48;;;7.20;;
23338;SDS011;11841;49.368;20.962;2022-08-19T12:55:43;11.85;;;7.05;;
23338;SDS011;11841;49.368;20.962;2022-08-19T12:58:10;15.43;;;6.95;;
23338;SDS011;11841;49.368;20.962;2022-08-19T13:00:38;15.15;;;7.60;;
23338;SDS011;11841;49.368;20.962;2022-08-19T13:03:06;8.90;;;7.55;;
23338;SDS011;11841;49.368;20.962;2022-08-19T13:05:33;14.48;;;6.85;;
23338;SDS011;11841;49.368;20.962;2022-08-19T13:08:00;16.52;;;7.10;;
23338;SDS011;11841;49.368;20.962;2022-08-19T13:10:28;9.18;;;6.85;;
23338;SDS011;11841;49.368;20.962;2022-08-19T13:13:05;11.52;;;7.13;;
23338;SDS011;11841;49.368;20.962;2022-08-19T13:15:34;11.18;;;7.68;;
23338;SDS011;11841;49.368;20.962;2022-08-19T13:18:03;12.85;;;8.05;;
23338;SDS011;11841;49.368;20.962;2022-08-19T13:20:29;16.13;;;8.52;;
23338;SDS011;11841;49.368;20.962;2022-08-19T13:22:56;12.63;;;8.38;;
23338;SDS011;11841;49.368;20.962;2022-08-19T13:25:23;17.20;;;7.88;;
23338;SDS011;11841;49.368;20.962;2022-08-19T13:27:51;9.35;;;7.50;;
23338;SDS011;11841;49.368;20.962;2022-08-19T13:30:19;18.53;;;7.53;;
23338;SDS011;11841;49.368;20.962;2022-08-19T13:33:04;10.57;;;8.75;;
23338;SDS011;11841;49.368;20.962;2022-08-19T13:35:38;8.73;;;7.82;;
23338;SDS011;11841;49.368;20.962;2022-08-19T13:38:06;10.32;;;7.90;;
23338;SDS011;11841;49.368;20.962;2022-08-19T13:40:37;11.45;;;8.43;;
23338;SDS011;11841;49.368;20.962;2022-08-19T13:43:06;15.57;;;8.65;;
23338;SDS011;11841;49.368;20.962;2022-08-19T13:45:49;13.80;;;9.35;;
23338;SDS011;11841;49.368;20.962;2022-08-19T13:48:18;12.52;;;7.43;;
23338;SDS011;11841;49.368;20.962;2022-08-19T13:50:45;11.25;;;8.55;;
23338;SDS011;11841;49.368;20.962;2022-08-19T13:53:13;9.07;;;8.18;;
23338;SDS011;11841;49.368;20.962;2022-08-19T13:55:41;10.20;;;7.90;;
23338;SDS011;11841;49.368;20.962;2022-08-19T13:58:09;14.23;;;8.35;;
23338;SDS011;11841;49.368;20.962;2022-08-19T14:00:39;17.95;;;8.15;;
23338;SDS011;11841;49.368;20.962;2022-08-19T14:03:08;14.45;;;7.85;;
23338;SDS011;11841;49.368;20.962;2022-08-19T14:05:35;14.93;;;8.63;;
23338;SDS011;11841;49.368;20.962;2022-08-19T14:08:02;11.73;;;9.30;;
23338;SDS011;11841;49.368;20.962;2022-08-19T14:10:29;11.32;;;8.90;;
23338;SDS011;11841;49.368;20.962;2022-08-19T14:12:58;12.00;;;8.77;;
23338;SDS011;11841;49.368;20.962;2022-08-19T14:15:26;11.48;;;8.07;;
23338;SDS011;11841;49.368;20.962;2022-08-19T14:17:54;13.32;;;9.10;;
23338;SDS011;11841;49.368;20.962;2022-08-19T14:20:21;10.55;;;8.27;;
23338;SDS011;11841;49.368;20.962;2022-08-19T14:22:51;14.82;;;9.68;;
23338;SDS011;11841;49.368;20.962;2022-08-19T14:25:20;13.95;;;9.60;;
23338;SDS011;11841;49.368;20.962;2022-08-19T14:27:49;10.60;;;8.85;;
23338;SDS011;11841;49.368;20.962;2022-08-19T14:30:18;21.38;;;12.48;;
23338;SDS011;11841;49.368;20.962;2022-08-19T14:32:47;17.73;;;12.43;;
23338;SDS011;11841;49.368;20.962;2022-08-19T14:35:14;23.55;;;9.10;;
23338;SDS011;11841;49.368;20.962;2022-08-19T14:37:42;10.25;;;8.38;;
23338;SDS011;11841;49.368;20.962;2022-08-19T14:40:12;15.55;;;8.40;;
23338;SDS011;11841;49.368;20.962;2022-08-19T14:42:40;14.30;;;9.50;;
23338;SDS011;11841;49.368;20.962;2022-08-19T14:45:08;11.45;;;9.43;;
23338;SDS011;11841;49.368;20.962;2022-08-19T14:50:07;11.55;;;8.75;;
23338;SDS011;11841;49.368;20.962;2022-08-19T14:52:44;13.93;;;8.45;;
23338;SDS011;11841;49.368;20.962;2022-08-19T14:55:12;12.63;;;8.90;;
23338;SDS011;11841;49.368;20.962;2022-08-19T14:57:43;9.55;;;8.10;;
23338;SDS011;11841;49.368;20.962;2022-08-19T15:00:10;19.05;;;9.20;;
23338;SDS011;11841;49.368;20.962;2022-08-19T15:02:41;14.82;;;9.85;;
23338;SDS011;11841;49.368;20.962;2022-08-19T15:05:10;17.15;;;10.43;;
23338;SDS011;11841;49.368;20.962;2022-08-19T15:07:37;15.65;;;9.20;;
23338;SDS011;11841;49.368;20.962;2022-08-19T15:10:05;16.15;;;8.25;;
23338;SDS011;11841;49.368;20.962;2022-08-19T15:12:36;17.42;;;8.93;;
23338;SDS011;11841;49.368;20.962;2022-08-19T15:15:09;13.35;;;9.25;;